Time;durP1;ratioP1;P1;durP2;ratioP2;P2;SDS_P1;SDS_P2;PMS_P1;PMS_P2;Temp;Humidity;BMP_temperature;BMP_pressure;BME280_temperature;BME280_humidity;BME280_pressure;Samples;Min_cycle;Max_cycle;Signal;HPM_P1;HPM_P2
2023/05/22 00:00:34;;;;;;;11.67;10.47;;;14.20;99.90;;;;;;5020502;28;20210;-76
2023/05/22 00:03:02;;;;;;;11.27;10.17;;;14.20;99.90;;;;;;5008747;28;20199;-76
2023/05/22 00:05:29;;;;;;;13.00;11.87;;;14.20;99.90;;;;;;5008019;28;20216;-76
2023/05/22 00:07:56;;;;;;;12.47;11.27;;;14.20;99.90;;;;;;5012421;28;20211;-76
2023/05/22 00:10:23;;;;;;;11.53;10.40;;;14.10;99.90;;;;;;5018237;28;20212;-76
2023/05/22 00:12:51;;;;;;;13.77;10.90;;;14.10;99.90;;;;;;5007259;28;20205;-76
2023/05/22 00:15:18;;;;;;;11.57;10.37;;;14.10;99.90;;;;;;5013627;28;20662;-76
2023/05/22 00:17:44;;;;;;;12.13;10.73;;;14.00;99.90;;;;;;5011525;28;20228;-75
2023/05/22 00:20:12;;;;;;;13.03;11.90;;;14.00;99.90;;;;;;5024500;28;20196;-76
2023/05/22 00:22:39;;;;;;;12.33;11.00;;;14.00;99.90;;;;;;5010591;28;20195;-76
2023/05/22 00:25:07;;;;;;;12.00;10.77;;;13.90;99.90;;;;;;5010153;28;20317;-76
2023/05/22 00:27:34;;;;;;;14.40;13.00;;;13.80;99.90;;;;;;5012774;28;20267;-76
2023/05/22 00:30:02;;;;;;;14.20;12.80;;;13.80;99.90;;;;;;5020991;28;20235;-76
2023/05/22 00:32:30;;;;;;;13.73;12.53;;;13.70;99.90;;;;;;5010492;28;20224;-76
2023/05/22 00:34:56;;;;;;;14.30;13.00;;;13.70;99.90;;;;;;5013253;28;20230;-77
2023/05/22 00:37:24;;;;;;;13.67;12.33;;;13.70;99.90;;;;;;5005983;28;20200;-77
2023/05/22 00:39:51;;;;;;;12.73;11.43;;;13.70;99.90;;;;;;5006739;28;20693;-76
2023/05/22 00:42:18;;;;;;;14.10;12.40;;;13.60;99.90;;;;;;5008863;28;20736;-76
2023/05/22 00:44:45;;;;;;;12.30;11.10;;;13.60;99.90;;;;;;5008391;28;20317;-76
2023/05/22 00:47:13;;;;;;;13.60;11.57;;;13.60;99.90;;;;;;5011101;28;20201;-76
2023/05/22 00:49:40;;;;;;;12.47;11.27;;;13.60;99.90;;;;;;5012777;28;20706;-76
2023/05/22 00:52:08;;;;;;;13.00;11.70;;;13.50;99.90;;;;;;5007243;28;20194;-76
2023/05/22 00:54:35;;;;;;;12.53;11.33;;;13.50;99.90;;;;;;5010038;28;20237;-76
2023/05/22 00:57:04;;;;;;;11.83;10.47;;;13.40;99.90;;;;;;5009948;28;20207;-76
2023/05/22 00:59:31;;;;;;;11.77;10.57;;;13.40;99.90;;;;;;5009372;28;20193;-76
2023/05/22 01:02:00;;;;;;;12.53;11.00;;;13.40;99.90;;;;;;5013064;28;20225;-76
2023/05/22 01:04:31;;;;;;;12.10;10.90;;;13.30;99.90;;;;;;5009395;28;20229;-77
2023/05/22 01:07:01;;;;;;;13.37;11.97;;;13.30;99.90;;;;;;5003869;28;20699;-77
2023/05/22 01:09:28;;;;;;;12.50;11.40;;;13.30;99.90;;;;;;5009486;28;20227;-76
2023/05/22 01:12:03;;;;;;;12.87;11.67;;;13.30;99.90;;;;;;5006711;28;20201;-76
2023/05/22 01:14:36;;;;;;;13.20;11.80;;;13.30;99.90;;;;;;5009191;28;20225;-76
2023/05/22 01:17:11;;;;;;;12.87;11.57;;;13.30;99.90;;;;;;5013423;28;20219;-76
2023/05/22 01:20:00;;;;;;;12.73;11.53;;;13.20;99.90;;;;;;5007198;28;20207;-76
2023/05/22 01:22:45;;;;;;;12.07;10.97;;;13.20;99.90;;;;;;5012776;28;20213;-76
2023/05/22 01:25:31;;;;;;;13.10;11.80;;;13.20;99.90;;;;;;5007113;28;20251;-77
2023/05/22 01:28:18;;;;;;;13.23;12.03;;;13.20;99.90;;;;;;5000866;28;20262;-76
2023/05/22 01:30:50;;;;;;;13.73;12.40;;;13.10;99.90;;;;;;5008631;28;20266;-76
2023/05/22 01:33:17;;;;;;;13.00;11.80;;;13.10;99.90;;;;;;5008408;28;20204;-76
2023/05/22 01:35:52;;;;;;;12.20;11.03;;;13.00;99.90;;;;;;5012299;28;20300;-76
2023/05/22 01:38:20;;;;;;;11.93;10.73;;;13.00;99.90;;;;;;5009703;28;20224;-76
2023/05/22 01:40:48;;;;;;;12.50;11.30;;;13.00;99.90;;;;;;5011157;28;20204;-77
2023/05/22 01:43:15;;;;;;;12.30;11.17;;;13.00;99.90;;;;;;5006261;28;20262;-76
2023/05/22 01:45:42;;;;;;;11.90;10.80;;;13.00;99.90;;;;;;5011290;28;20718;-75
2023/05/22 01:48:11;;;;;;;12.10;11.00;;;13.00;99.90;;;;;;5008748;28;20667;-76
2023/05/22 01:50:39;;;;;;;12.67;11.37;;;13.00;99.90;;;;;;5012290;28;20192;-76
2023/05/22 01:53:13;;;;;;;12.17;8.97;;;12.90;99.90;;;;;;5012479;28;20255;-76
2023/05/22 01:55:46;;;;;;;10.43;9.20;;;12.90;99.90;;;;;;5005997;28;20221;-77
2023/05/22 01:58:24;;;;;;;11.73;9.30;;;12.80;99.90;;;;;;5009036;28;20626;-76
2023/05/22 02:00:53;;;;;;;10.43;8.80;;;12.90;99.90;;;;;;5009124;28;20204;-76
2023/05/22 02:03:27;;;;;;;10.60;9.60;;;12.80;99.90;;;;;;5006310;28;20203;-75
2023/05/22 02:05:56;;;;;;;13.67;12.47;;;12.80;99.90;;;;;;5013647;28;20227;-76
2023/05/22 02:08:23;;;;;;;13.70;12.33;;;12.80;99.90;;;;;;5012627;28;20248;-76
2023/05/22 02:10:53;;;;;;;13.73;12.43;;;12.80;99.90;;;;;;5006794;28;20251;-76
2023/05/22 02:13:22;;;;;;;13.53;12.20;;;12.70;99.90;;;;;;5012291;28;20682;-77
2023/05/22 02:15:49;;;;;;;12.50;11.40;;;12.70;99.90;;;;;;5012189;28;20224;-77
2023/05/22 02:18:16;;;;;;;12.73;11.53;;;12.80;99.90;;;;;;5012117;28;20289;-76
2023/05/22 02:20:46;;;;;;;11.77;10.67;;;12.80;99.90;;;;;;5012383;28;20196;-76
2023/05/22 02:23:13;;;;;;;11.83;10.73;;;12.80;99.90;;;;;;5009486;28;20197;-76
2023/05/22 02:25:39;;;;;;;11.63;10.43;;;12.90;99.90;;;;;;5012350;28;20213;-76
2023/05/22 02:28:06;;;;;;;12.87;11.57;;;12.90;99.90;;;;;;5016016;28;20194;-75
2023/05/22 02:30:33;;;;;;;11.43;10.37;;;13.00;99.90;;;;;;5008461;28;20718;-76
2023/05/22 02:33:04;;;;;;;11.37;10.27;;;13.00;99.90;;;;;;5016404;28;20200;-76
2023/05/22 02:35:31;;;;;;;12.30;11.13;;;13.10;99.90;;;;;;5016717;28;20274;-76
2023/05/22 02:37:59;;;;;;;11.97;10.83;;;13.10;99.90;;;;;;5010731;28;20189;-76
2023/05/22 02:40:25;;;;;;;12.20;11.00;;;13.10;99.90;;;;;;5016528;28;20565;-76
2023/05/22 02:42:52;;;;;;;14.03;12.60;;;13.20;99.90;;;;;;5015081;28;20291;-77
2023/05/22 02:45:20;;;;;;;13.67;12.17;;;13.20;99.90;;;;;;5015293;28;20251;-77
2023/05/22 02:47:46;;;;;;;13.03;11.83;;;13.20;99.90;;;;;;5015857;28;20197;-76
2023/05/22 02:50:14;;;;;;;11.83;10.63;;;13.30;99.90;;;;;;5015456;28;20224;-76
2023/05/22 02:52:41;;;;;;;12.30;11.20;;;13.30;99.90;;;;;;5011492;28;20205;-76
2023/05/22 02:55:10;;;;;;;12.50;11.20;;;13.30;99.90;;;;;;5011223;28;20240;-77
2023/05/22 02:57:37;;;;;;;12.00;10.90;;;13.30;99.90;;;;;;5012600;28;20205;-77
2023/05/22 03:00:05;;;;;;;12.00;10.77;;;13.40;99.90;;;;;;5002784;28;20243;-76
2023/05/22 03:02:33;;;;;;;12.77;11.57;;;13.50;99.90;;;;;;5008566;28;20214;-77
2023/05/22 03:05:00;;;;;;;9.77;8.77;;;13.50;99.90;;;;;;5010524;28;20216;-77
2023/05/22 03:07:28;;;;;;;12.77;11.57;;;13.50;99.90;;;;;;5008028;28;20900;-77
2023/05/22 03:09:55;;;;;;;11.77;10.57;;;13.50;99.90;;;;;;5008556;28;20283;-77
2023/05/22 03:12:23;;;;;;;9.73;8.83;;;13.60;99.90;;;;;;5022017;28;20198;-78
2023/05/22 03:14:50;;;;;;;11.93;10.80;;;13.60;99.90;;;;;;5014734;28;20235;-82
2023/05/22 03:17:17;;;;;;;11.10;10.10;;;13.60;99.90;;;;;;5014536;28;20205;-78
2023/05/22 03:19:44;;;;;;;11.43;10.20;;;13.60;99.90;;;;;;5009067;28;20199;-80
2023/05/22 03:22:10;;;;;;;12.73;11.47;;;13.60;99.90;;;;;;5023970;28;20618;-79
2023/05/22 03:24:38;;;;;;;12.30;10.33;;;13.50;99.90;;;;;;5021741;28;20228;-79
2023/05/22 03:27:06;;;;;;;11.77;10.67;;;13.60;99.90;;;;;;5006158;28;20664;-80
2023/05/22 03:29:39;;;;;;;13.13;11.03;;;13.50;99.90;;;;;;5007774;28;20267;-80
2023/05/22 03:32:07;;;;;;;12.47;11.27;;;13.40;99.90;;;;;;5010761;28;20616;-79
2023/05/22 03:34:34;;;;;;;12.33;10.60;;;13.40;99.90;;;;;;5013710;28;20214;-80
2023/05/22 03:37:02;;;;;;;11.50;10.37;;;13.40;99.90;;;;;;5014823;28;20356;-81
2023/05/22 03:39:28;;;;;;;10.90;9.90;;;13.40;99.90;;;;;;5009379;28;20189;-79
2023/05/22 03:42:00;;;;;;;11.10;10.00;;;13.40;99.90;;;;;;5011107;28;20209;-81
2023/05/22 03:44:27;;;;;;;11.03;9.93;;;13.40;99.90;;;;;;5007333;28;20298;-77
2023/05/22 03:46:56;;;;;;;11.87;10.67;;;13.40;99.90;;;;;;5011604;28;20739;-77
2023/05/22 03:49:23;;;;;;;11.80;10.70;;;13.50;99.90;;;;;;5018448;28;20222;-77
2023/05/22 03:51:49;;;;;;;12.27;11.03;;;13.60;99.90;;;;;;5009804;28;20231;-77
2023/05/22 03:54:16;;;;;;;13.13;11.83;;;13.60;99.90;;;;;;5012596;28;20228;-76
2023/05/22 03:56:43;;;;;;;10.63;9.53;;;13.70;99.90;;;;;;5013185;28;20220;-76
2023/05/22 03:59:10;;;;;;;11.20;10.00;;;13.70;99.90;;;;;;5009972;28;20189;-76
2023/05/22 04:01:38;;;;;;;11.90;9.87;;;13.80;99.90;;;;;;5006758;28;20288;-76
2023/05/22 04:04:08;;;;;;;11.77;9.57;;;13.90;99.90;;;;;;5009870;28;20281;-76
2023/05/22 04:06:41;;;;;;;10.33;9.33;;;13.90;99.90;;;;;;5009398;28;20206;-76
2023/05/22 04:09:10;;;;;;;10.43;9.33;;;14.00;99.90;;;;;;5008081;28;20196;-77
2023/05/22 04:11:38;;;;;;;11.53;10.20;;;14.10;99.90;;;;;;5006800;28;20266;-77
2023/05/22 04:14:06;;;;;;;9.60;8.60;;;14.20;99.90;;;;;;5012831;28;20201;-77
2023/05/22 04:16:33;;;;;;;11.60;9.80;;;14.20;99.90;;;;;;5011240;28;20728;-77
2023/05/22 04:19:02;;;;;;;9.87;8.87;;;14.30;99.90;;;;;;5020229;28;20589;-76
2023/05/22 04:21:32;;;;;;;10.90;9.77;;;14.40;99.90;;;;;;5008887;28;20203;-77
2023/05/22 04:24:00;;;;;;;9.40;8.50;;;14.50;99.90;;;;;;5014950;28;20639;-77
2023/05/22 04:26:28;;;;;;;9.97;8.97;;;14.60;99.90;;;;;;5005595;28;20262;-77
2023/05/22 04:28:55;;;;;;;10.47;9.37;;;14.70;99.90;;;;;;5006301;28;20227;-77
2023/05/22 04:31:22;;;;;;;11.17;10.00;;;14.80;99.90;;;;;;5009173;28;20222;-76
2023/05/22 04:33:49;;;;;;;11.87;10.63;;;14.90;99.90;;;;;;5009016;28;20200;-78
2023/05/22 04:36:21;;;;;;;10.93;9.47;;;15.00;99.90;;;;;;5011468;28;20642;-76
2023/05/22 04:38:51;;;;;;;10.60;9.50;;;15.20;99.90;;;;;;5010602;28;20192;-77
2023/05/22 04:41:18;;;;;;;10.53;9.40;;;15.30;99.90;;;;;;5006161;28;20206;-77
2023/05/22 04:43:47;;;;;;;10.60;9.33;;;15.50;99.90;;;;;;5005060;28;20230;-77
2023/05/22 04:46:14;;;;;;;11.77;10.17;;;15.70;99.90;;;;;;5004624;28;20223;-77
2023/05/22 04:48:41;;;;;;;10.90;9.30;;;16.00;99.90;;;;;;5019614;28;20199;-76
2023/05/22 04:51:09;;;;;;;10.40;9.30;;;16.30;99.90;;;;;;5009279;28;20208;-77
2023/05/22 04:53:37;;;;;;;10.43;9.30;;;16.50;99.90;;;;;;5008046;28;20283;-77
2023/05/22 04:56:06;;;;;;;10.73;9.63;;;16.80;99.90;;;;;;5008744;28;20228;-77
2023/05/22 04:58:36;;;;;;;9.90;8.90;;;17.00;99.90;;;;;;5007606;28;20288;-78
2023/05/22 05:01:03;;;;;;;10.17;9.17;;;17.20;99.90;;;;;;5005781;28;20193;-76
2023/05/22 05:03:30;;;;;;;11.67;9.73;;;17.40;99.90;;;;;;5005133;28;20201;-77
2023/05/22 05:05:59;;;;;;;10.63;9.27;;;17.40;99.90;;;;;;5003600;28;20230;-78
2023/05/22 05:08:27;;;;;;;10.07;9.07;;;17.50;99.90;;;;;;5014227;28;20205;-78
2023/05/22 05:10:54;;;;;;;10.00;9.00;;;17.60;99.90;;;;;;5018792;28;20583;-78
2023/05/22 05:13:22;;;;;;;11.10;10.00;;;17.70;99.90;;;;;;5009589;28;20202;-79
2023/05/22 05:15:49;;;;;;;10.60;9.50;;;17.70;99.90;;;;;;5009047;28;20223;-77
2023/05/22 05:18:18;;;;;;;11.93;10.03;;;17.70;99.90;;;;;;5019607;28;20212;-78
2023/05/22 05:20:45;;;;;;;11.83;10.33;;;17.60;99.90;;;;;;5012206;28;20200;-77
2023/05/22 05:23:14;;;;;;;10.07;9.07;;;17.50;99.90;;;;;;5004544;28;20229;-77
2023/05/22 05:25:41;;;;;;;11.00;9.80;;;17.40;99.90;;;;;;5008184;28;20219;-77
2023/05/22 05:28:10;;;;;;;10.63;9.53;;;17.40;99.90;;;;;;5012414;28;20199;-77
2023/05/22 05:30:39;;;;;;;12.67;10.87;;;17.50;99.90;;;;;;5011996;28;20218;-77
2023/05/22 05:33:33;;;;;;;11.77;9.60;;;17.50;99.90;;;;;;5000327;28;20238;-78
2023/05/22 05:36:07;;;;;;;11.67;10.07;;;17.80;99.90;;;;;;5009525;28;20234;-77
2023/05/22 05:38:35;;;;;;;12.00;9.73;;;17.90;99.90;;;;;;5007811;28;20212;-77
2023/05/22 05:41:02;;;;;;;11.47;10.27;;;18.00;99.90;;;;;;5011443;28;20200;-77
2023/05/22 05:43:29;;;;;;;11.40;9.90;;;18.10;99.90;;;;;;5007084;28;20201;-77
2023/05/22 05:46:04;;;;;;;13.03;9.93;;;18.30;99.90;;;;;;5010979;28;20650;-77
2023/05/22 05:48:31;;;;;;;11.60;9.93;;;18.60;99.90;;;;;;5015208;28;20259;-77
2023/05/22 05:50:59;;;;;;;11.77;9.90;;;18.80;99.90;;;;;;5009987;28;20213;-78
2023/05/22 05:53:28;;;;;;;11.17;9.13;;;18.90;99.90;;;;;;5010004;28;20197;-79
2023/05/22 05:55:58;;;;;;;10.97;9.87;;;19.00;99.90;;;;;;5013778;28;20241;-81
2023/05/22 05:58:26;;;;;;;10.67;9.53;;;19.00;99.90;;;;;;5024519;28;20227;-81
2023/05/22 06:01:15;;;;;;;10.00;9.00;;;19.00;99.90;;;;;;5003722;28;20280;-78
2023/05/22 06:03:42;;;;;;;9.77;8.50;;;19.10;99.90;;;;;;5007631;28;20246;-78
2023/05/22 06:06:16;;;;;;;10.37;9.37;;;19.30;99.90;;;;;;5006390;28;20224;-77
2023/05/22 06:09:12;;;;;;;11.43;9.33;;;19.30;99.90;;;;;;5015838;28;20376;-77
2023/05/22 06:12:11;;;;;;;10.87;9.77;;;19.20;99.90;;;;;;5004891;28;20254;-78
2023/05/22 06:14:38;;;;;;;10.60;9.60;;;19.20;99.90;;;;;;5011421;28;20216;-78
2023/05/22 06:17:08;;;;;;;10.97;9.87;;;19.30;99.90;;;;;;5019711;28;20740;-77
2023/05/22 06:19:36;;;;;;;11.23;10.13;;;19.40;99.90;;;;;;5007016;28;20192;-77
2023/05/22 06:22:03;;;;;;;10.83;9.73;;;19.50;99.90;;;;;;5012834;28;20205;-77
2023/05/22 06:24:32;;;;;;;10.60;9.57;;;19.60;99.90;;;;;;5015459;28;20221;-77
2023/05/22 06:27:04;;;;;;;11.30;10.20;;;19.80;99.90;;;;;;5009876;28;20200;-78
2023/05/22 06:29:31;;;;;;;10.97;9.97;;;19.90;99.90;;;;;;5002633;28;20197;-77
2023/05/22 06:31:58;;;;;;;12.03;10.87;;;20.30;99.90;;;;;;5007559;28;20247;-78
2023/05/22 06:34:26;;;;;;;12.67;11.47;;;21.10;99.90;;;;;;5010239;28;20227;-78
2023/05/22 06:36:56;;;;;;;12.07;10.67;;;21.80;99.90;;;;;;5016262;28;20255;-78
2023/05/22 06:39:27;;;;;;;11.93;10.73;;;22.50;99.90;;;;;;5018920;28;20200;-78
2023/05/22 06:42:12;;;;;;;9.63;8.63;;;23.20;99.90;;;;;;5006631;28;20639;-78
2023/05/22 06:44:58;;;;;;;11.67;10.67;;;23.90;99.90;;;;;;5006102;28;20227;-78
2023/05/22 06:47:33;;;;;;;10.57;9.67;;;24.30;99.90;;;;;;5010610;28;20202;-77
2023/05/22 06:50:01;;;;;;;12.33;9.60;;;24.70;99.90;;;;;;5018346;28;20588;-78
2023/05/22 06:52:30;;;;;;;10.53;9.53;;;25.10;99.90;;;;;;5011649;28;20212;-78
2023/05/22 06:55:04;;;;;;;12.47;11.47;;;25.60;99.90;;;;;;5017172;28;20231;-78
2023/05/22 06:57:32;;;;;;;11.10;10.00;;;25.60;99.90;;;;;;5019376;28;20195;-78
2023/05/22 07:00:00;;;;;;;12.63;11.63;;;25.70;99.90;;;;;;5020687;28;20675;-78
2023/05/22 07:02:46;;;;;;;12.27;11.17;;;25.40;99.90;;;;;;5018908;28;20741;-77
2023/05/22 07:05:37;;;;;;;12.97;11.93;;;25.10;99.90;;;;;;5006520;28;20303;-78
2023/05/22 07:08:05;;;;;;;12.07;11.07;;;24.70;99.90;;;;;;5011316;28;20197;-78
2023/05/22 07:10:32;;;;;;;12.30;11.20;;;24.30;99.90;;;;;;5021442;28;20730;-78
2023/05/22 07:12:59;;;;;;;11.80;10.80;;;24.00;99.90;;;;;;5011924;28;20212;-78
2023/05/22 07:15:26;;;;;;;12.20;11.20;;;23.90;99.90;;;;;;5014142;28;20223;-79
2023/05/22 07:17:56;;;;;;;12.07;11.07;;;23.90;99.90;;;;;;5013927;28;20204;-78
2023/05/22 07:20:24;;;;;;;11.60;10.70;;;24.00;99.90;;;;;;5011216;28;20205;-80
2023/05/22 07:23:02;;;;;;;13.50;12.40;;;24.30;99.90;;;;;;5012391;28;20204;-78
2023/05/22 07:25:29;;;;;;;11.57;10.50;;;24.60;99.90;;;;;;5020308;28;20247;-78
2023/05/22 07:27:57;;;;;;;12.57;11.57;;;24.40;99.90;;;;;;5008281;28;20236;-79
2023/05/22 07:30:25;;;;;;;14.13;12.93;;;24.10;99.90;;;;;;5014285;28;20223;-78
2023/05/22 07:32:52;;;;;;;11.63;10.37;;;23.80;99.90;;;;;;5008489;28;20347;-79
2023/05/22 07:35:19;;;;;;;10.37;9.37;;;23.60;99.90;;;;;;5008880;28;20213;-80
2023/05/22 07:37:46;;;;;;;11.07;9.53;;;23.40;99.90;;;;;;5015622;28;20194;-80
2023/05/22 07:40:15;;;;;;;9.10;8.23;;;23.30;99.90;;;;;;5017628;28;20251;-81
2023/05/22 07:42:41;;;;;;;9.87;8.97;;;23.20;99.90;;;;;;5016042;28;20208;-82
2023/05/22 07:45:11;;;;;;;10.07;8.97;;;23.20;99.90;;;;;;5012323;28;20224;-80
2023/05/22 07:47:38;;;;;;;9.30;8.40;;;23.00;99.90;;;;;;5024101;28;20196;-81
2023/05/22 07:50:06;;;;;;;10.57;9.17;;;22.90;99.90;;;;;;5025920;28;20206;-79
2023/05/22 07:52:36;;;;;;;9.70;8.70;;;22.80;99.90;;;;;;5032494;28;20569;-81
2023/05/22 07:55:06;;;;;;;9.13;8.23;;;22.80;99.90;;;;;;5021252;28;20778;-81
2023/05/22 07:57:35;;;;;;;9.67;8.60;;;22.70;99.90;;;;;;5021983;28;20637;-80
2023/05/22 08:00:13;;;;;;;13.53;12.43;;;22.70;99.90;;;;;;5032830;28;20305;-81
2023/05/22 08:02:40;;;;;;;9.97;8.70;;;22.70;99.90;;;;;;5027440;28;20731;-81
2023/05/22 08:05:08;;;;;;;9.63;8.73;;;22.70;99.90;;;;;;5018179;28;20217;-77
2023/05/22 08:07:35;;;;;;;9.50;8.50;;;22.70;99.90;;;;;;5026773;28;20230;-79
2023/05/22 08:10:07;;;;;;;10.00;9.00;;;22.70;99.90;;;;;;5031344;28;20606;-77
2023/05/22 08:12:36;;;;;;;10.50;9.27;;;22.70;99.90;;;;;;5023205;28;20242;-79
2023/05/22 08:15:03;;;;;;;10.83;9.20;;;22.80;99.90;;;;;;5025351;28;20232;-81
2023/05/22 08:17:30;;;;;;;11.13;9.40;;;22.90;99.90;;;;;;5010453;28;20212;-79
2023/05/22 08:19:57;;;;;;;10.10;9.20;;;23.10;99.90;;;;;;5022612;28;20200;-78
2023/05/22 08:22:24;;;;;;;10.43;9.43;;;23.30;99.90;;;;;;5029265;28;20235;-79
2023/05/22 08:24:50;;;;;;;9.40;8.50;;;23.40;99.90;;;;;;5021140;28;20208;-79
2023/05/22 08:27:17;;;;;;;9.10;8.00;;;23.50;99.90;;;;;;5028347;28;20266;-80
2023/05/22 08:29:45;;;;;;;12.80;11.70;;;23.90;99.90;;;;;;5014127;28;20197;-80
2023/05/22 08:32:12;;;;;;;14.43;12.97;;;24.50;99.90;;;;;;5019776;28;20221;-80
2023/05/22 08:34:40;;;;;;;11.07;9.83;;;25.10;99.90;;;;;;5025742;28;20221;-78
2023/05/22 08:37:08;;;;;;;11.13;10.10;;;25.70;99.90;;;;;;5033375;28;20231;-78
2023/05/22 08:39:35;;;;;;;13.43;12.30;;;26.10;99.90;;;;;;5018722;28;20220;-80
2023/05/22 08:42:02;;;;;;;11.80;10.60;;;26.40;99.90;;;;;;5019721;28;20236;-78
2023/05/22 08:44:29;;;;;;;12.97;9.77;;;26.60;99.90;;;;;;5022579;28;20223;-83
2023/05/22 08:46:59;;;;;;;13.93;12.73;;;26.80;99.90;;;;;;5014482;28;20227;-81
2023/05/22 08:49:25;;;;;;;13.20;12.10;;;26.80;99.90;;;;;;5025555;28;20220;-81
2023/05/22 08:51:56;;;;;;;14.20;13.10;;;27.00;99.90;;;;;;5014436;28;20208;-81
2023/05/22 08:54:26;;;;;;;12.80;11.57;;;27.30;99.90;;;;;;5025251;28;20262;-80
2023/05/22 08:56:53;;;;;;;11.43;10.23;;;27.50;99.90;;;;;;5018242;28;20555;-80
2023/05/22 08:59:21;;;;;;;10.73;9.73;;;27.70;99.90;;;;;;5012759;28;20200;-80
2023/05/22 09:01:48;;;;;;;9.83;8.63;;;28.00;99.90;;;;;;5013350;28;20209;-80
2023/05/22 09:04:16;;;;;;;11.03;10.00;;;28.10;99.90;;;;;;5014383;28;20575;-79
2023/05/22 09:06:46;;;;;;;10.83;9.83;;;28.40;99.90;;;;;;5012932;28;20203;-81
2023/05/22 09:09:13;;;;;;;13.10;11.90;;;28.40;99.90;;;;;;5023412;28;20261;-81
2023/05/22 09:11:40;;;;;;;12.60;11.50;;;28.50;99.90;;;;;;5014197;28;20212;-82
2023/05/22 09:14:08;;;;;;;12.57;11.47;;;28.90;99.90;;;;;;5022772;28;20209;-82
2023/05/22 09:16:44;;;;;;;12.67;11.57;;;29.00;99.90;;;;;;5027829;28;20273;-82
2023/05/22 09:19:12;;;;;;;12.90;11.80;;;29.20;99.90;;;;;;5019396;28;20210;-82
2023/05/22 09:21:40;;;;;;;13.00;11.90;;;29.00;99.90;;;;;;5021522;28;20196;-80
2023/05/22 09:24:09;;;;;;;12.20;11.20;;;28.90;99.90;;;;;;5020571;28;20210;-80
2023/05/22 09:26:36;;;;;;;12.57;11.47;;;29.00;99.90;;;;;;5022045;28;20260;-80
2023/05/22 09:29:04;;;;;;;13.30;12.00;;;29.00;99.90;;;;;;5020868;28;20204;-80
2023/05/22 09:31:31;;;;;;;12.73;11.43;;;29.30;99.90;;;;;;5015724;28;20216;-80
2023/05/22 09:33:58;;;;;;;11.97;10.97;;;29.40;99.90;;;;;;5010681;28;20208;-80
2023/05/22 09:36:32;;;;;;;12.97;11.63;;;29.30;99.90;;;;;;5008475;28;20283;-80
2023/05/22 09:39:02;;;;;;;13.53;12.43;;;29.40;99.90;;;;;;5009388;28;20751;-81
2023/05/22 09:41:31;;;;;;;13.33;12.13;;;29.30;99.90;;;;;;5010223;28;20553;-81
2023/05/22 09:43:57;;;;;;;13.13;12.00;;;29.30;99.90;;;;;;5032945;28;20204;-81
2023/05/22 09:46:24;;;;;;;12.70;11.60;;;29.10;99.90;;;;;;5036461;28;20191;-80
2023/05/22 09:48:51;;;;;;;12.60;11.50;;;29.10;99.90;;;;;;5019509;28;20193;-80
2023/05/22 09:51:22;;;;;;;12.07;11.07;;;29.20;99.90;;;;;;5021325;28;20266;-81
2023/05/22 09:53:50;;;;;;;12.87;11.77;;;29.40;99.90;;;;;;5028657;28;20203;-81
2023/05/22 09:56:22;;;;;;;12.57;11.47;;;29.60;99.90;;;;;;5027186;28;20286;-80
2023/05/22 09:58:51;;;;;;;12.13;11.10;;;29.60;99.90;;;;;;5024295;28;20201;-81
2023/05/22 10:01:21;;;;;;;12.80;11.53;;;29.80;99.90;;;;;;5018976;28;20539;-80
2023/05/22 10:03:51;;;;;;;12.27;11.17;;;29.80;99.90;;;;;;5028204;28;20226;-81
2023/05/22 10:06:21;;;;;;;12.60;11.50;;;29.90;99.90;;;;;;5013560;28;20232;-80
2023/05/22 10:08:56;;;;;;;11.20;10.30;;;29.90;99.90;;;;;;5020410;28;20260;-81
2023/05/22 10:11:27;;;;;;;12.97;11.87;;;30.00;99.90;;;;;;5030177;28;20211;-80
2023/05/22 10:13:57;;;;;;;12.70;11.60;;;30.00;99.90;;;;;;5014901;28;20212;-80
2023/05/22 10:16:25;;;;;;;13.23;12.07;;;30.10;99.90;;;;;;5026422;28;20195;-81
2023/05/22 10:18:54;;;;;;;11.43;10.53;;;30.10;99.90;;;;;;5024848;28;20201;-80
2023/05/22 10:21:21;;;;;;;11.70;10.70;;;30.10;99.90;;;;;;5015917;28;20201;-81
2023/05/22 10:23:50;;;;;;;12.37;11.20;;;30.10;99.90;;;;;;5017971;28;20228;-81
2023/05/22 10:26:18;;;;;;;11.67;10.67;;;29.80;99.90;;;;;;5028443;28;20239;-81
2023/05/22 10:28:52;;;;;;;12.20;11.10;;;29.50;99.90;;;;;;5010326;28;20320;-80
2023/05/22 10:31:27;;;;;;;10.60;9.73;;;29.40;99.90;;;;;;5024626;28;20212;-81
2023/05/22 10:34:22;;;;;;;10.43;9.50;;;29.40;99.90;;;;;;5028149;28;20208;-80
2023/05/22 10:37:04;;;;;;;10.80;9.73;;;29.40;99.90;;;;;;5007615;28;20541;-81
2023/05/22 10:39:40;;;;;;;11.07;10.07;;;29.00;99.90;;;;;;5024029;28;20627;-81
2023/05/22 10:42:12;;;;;;;10.97;9.87;;;28.90;99.90;;;;;;5021967;28;20215;-81
2023/05/22 10:44:40;;;;;;;12.03;10.83;;;28.90;99.90;;;;;;5025244;28;20671;-80
2023/05/22 10:47:10;;;;;;;10.23;9.33;;;28.90;99.90;;;;;;5024877;28;20196;-80
2023/05/22 10:49:37;;;;;;;10.37;9.37;;;28.70;99.90;;;;;;5025853;28;20203;-80
2023/05/22 10:52:05;;;;;;;9.83;8.93;;;28.20;99.90;;;;;;5015311;28;20251;-79
2023/05/22 10:54:43;;;;;;;10.17;9.17;;;28.30;99.90;;;;;;5035526;28;20705;-81
2023/05/22 10:57:11;;;;;;;10.30;9.33;;;28.40;99.90;;;;;;5022524;28;20197;-81
2023/05/22 10:59:39;;;;;;;10.87;9.80;;;28.50;99.90;;;;;;5027347;28;20483;-80
2023/05/22 11:02:17;;;;;;;10.37;9.37;;;28.50;99.90;;;;;;5022325;28;20204;-81
2023/05/22 11:04:44;;;;;;;10.00;9.10;;;28.40;99.90;;;;;;5029284;28;20229;-81
2023/05/22 11:07:13;;;;;;;9.67;8.77;;;28.40;99.90;;;;;;5033636;28;20203;-81
2023/05/22 11:09:42;;;;;;;10.53;9.53;;;28.60;99.90;;;;;;5021319;28;20229;-81
2023/05/22 11:12:16;;;;;;;12.00;9.23;;;28.50;99.90;;;;;;5030796;28;20227;-80
2023/05/22 11:14:49;;;;;;;11.47;10.30;;;28.30;99.90;;;;;;5026556;28;20212;-81
2023/05/22 11:17:18;;;;;;;12.33;11.13;;;27.80;99.90;;;;;;5026850;28;20207;-79
2023/05/22 11:19:56;;;;;;;13.07;11.77;;;27.70;99.90;;;;;;5024188;28;20206;-81
2023/05/22 11:22:23;;;;;;;13.50;12.30;;;27.70;99.90;;;;;;5028437;28;20193;-81
2023/05/22 11:24:50;;;;;;;12.37;11.27;;;27.60;99.90;;;;;;5029894;28;20220;-80
2023/05/22 11:27:17;;;;;;;13.00;11.90;;;27.30;99.90;;;;;;5021140;28;20660;-81
2023/05/22 11:29:45;;;;;;;13.07;11.97;;;27.30;99.90;;;;;;5021835;28;20270;-81
2023/05/22 11:32:14;;;;;;;11.10;9.90;;;27.30;99.90;;;;;;5030913;28;20746;-81
2023/05/22 11:34:41;;;;;;;11.43;10.33;;;27.20;99.90;;;;;;5023650;28;20212;-80
2023/05/22 11:37:09;;;;;;;14.87;11.00;;;27.10;99.90;;;;;;5019898;28;20209;-80
2023/05/22 11:39:36;;;;;;;12.53;11.37;;;26.80;99.90;;;;;;5036625;28;20258;-81
2023/05/22 11:42:03;;;;;;;15.27;14.07;;;26.50;99.90;;;;;;5019932;28;20256;-81
2023/05/22 11:44:30;;;;;;;11.23;10.20;;;26.40;99.90;;;;;;5031625;28;20303;-81
2023/05/22 11:46:59;;;;;;;10.27;9.27;;;26.40;99.90;;;;;;5028622;28;20208;-81
2023/05/22 11:49:27;;;;;;;9.97;8.97;;;26.70;99.90;;;;;;5022927;28;20231;-81
2023/05/22 11:51:54;;;;;;;11.83;10.80;;;26.80;99.90;;;;;;5024655;28;20212;-81
2023/05/22 11:54:21;;;;;;;14.10;12.90;;;26.70;99.90;;;;;;5026767;28;20250;-81
2023/05/22 11:56:48;;;;;;;11.17;9.93;;;26.80;99.90;;;;;;5025409;28;20732;-81
2023/05/22 11:59:15;;;;;;;9.70;8.70;;;26.70;99.90;;;;;;5022714;28;20694;-81
2023/05/22 12:01:42;;;;;;;9.80;8.90;;;26.60;99.90;;;;;;5037015;28;20196;-79
2023/05/22 12:04:10;;;;;;;10.73;9.70;;;26.60;99.90;;;;;;5020909;28;20205;-79
2023/05/22 12:06:37;;;;;;;11.27;10.23;;;26.70;99.90;;;;;;5032202;28;20196;-80
2023/05/22 12:09:05;;;;;;;13.37;12.17;;;26.70;99.90;;;;;;5029240;28;20208;-80
2023/05/22 12:11:35;;;;;;;13.93;12.77;;;26.70;99.90;;;;;;5026493;28;20206;-81
2023/05/22 12:14:02;;;;;;;12.27;11.27;;;26.90;99.90;;;;;;5026513;28;20581;-81
2023/05/22 12:16:34;;;;;;;13.53;12.37;;;26.90;99.90;;;;;;5025238;28;20220;-80
2023/05/22 12:19:05;;;;;;;12.27;9.50;;;26.90;99.90;;;;;;5028101;28;20204;-81
2023/05/22 12:21:34;;;;;;;10.30;9.30;;;26.60;99.90;;;;;;5028900;28;20275;-80
2023/05/22 12:24:03;;;;;;;10.13;9.13;;;26.70;99.90;;;;;;5027615;28;20210;-80
2023/05/22 12:26:30;;;;;;;8.77;7.97;;;26.70;99.90;;;;;;5025831;28;20212;-80
2023/05/22 12:28:58;;;;;;;11.70;10.60;;;26.60;99.90;;;;;;5023329;28;20201;-80
2023/05/22 12:31:25;;;;;;;10.60;9.60;;;26.60;99.90;;;;;;5016945;28;20208;-80
2023/05/22 12:33:54;;;;;;;9.57;8.57;;;26.40;99.90;;;;;;5012369;28;20243;-81
2023/05/22 12:36:20;;;;;;;8.83;7.93;;;26.50;99.90;;;;;;5021386;28;20256;-78
2023/05/22 12:38:48;;;;;;;9.00;8.10;;;26.50;99.90;;;;;;5010570;28;20247;-79
2023/05/22 12:41:15;;;;;;;9.27;8.27;;;26.40;99.90;;;;;;5014686;28;20216;-80